sensor_id;sensor_type;location;lat;lon;timestamp;P1;durP1;ratioP1;P2;durP2;ratioP2
17451;SDS011;8843;48.838;9.324;2023-03-16T00:02:05;6.93;;;6.13;;
17451;SDS011;8843;48.838;9.324;2023-03-16T00:04:33;7.13;;;5.97;;
17451;SDS011;8843;48.838;9.324;2023-03-16T00:09:47;6.33;;;5.33;;
17451;SDS011;8843;48.838;9.324;2023-03-16T00:12:15;9.73;;;7.07;;
17451;SDS011;8843;48.838;9.324;2023-03-16T00:14:45;7.30;;;6.23;;
17451;SDS011;8843;48.838;9.324;2023-03-16T00:17:15;7.83;;;6.07;;
17451;SDS011;8843;48.838;9.324;2023-03-16T00:22:32;7.53;;;5.70;;
17451;SDS011;8843;48.838;9.324;2023-03-16T00:24:59;7.30;;;5.63;;
17451;SDS011;8843;48.838;9.324;2023-03-16T00:27:26;6.53;;;5.83;;
17451;SDS011;8843;48.838;9.324;2023-03-16T00:29:56;7.30;;;6.60;;
17451;SDS011;8843;48.838;9.324;2023-03-16T00:32:24;7.90;;;6.70;;
17451;SDS011;8843;48.838;9.324;2023-03-16T00:34:52;8.37;;;6.20;;
17451;SDS011;8843;48.838;9.324;2023-03-16T00:37:19;7.17;;;5.87;;
17451;SDS011;8843;48.838;9.324;2023-03-16T00:39:47;7.13;;;6.20;;
17451;SDS011;8843;48.838;9.324;2023-03-16T00:42:15;7.33;;;6.03;;
17451;SDS011;8843;48.838;9.324;2023-03-16T00:44:44;6.97;;;6.03;;
17451;SDS011;8843;48.838;9.324;2023-03-16T00:47:12;9.93;;;7.13;;
17451;SDS011;8843;48.838;9.324;2023-03-16T00:49:40;8.07;;;6.40;;
17451;SDS011;8843;48.838;9.324;2023-03-16T00:52:08;7.03;;;5.50;;
17451;SDS011;8843;48.838;9.324;2023-03-16T00:54:38;9.77;;;7.57;;
17451;SDS011;8843;48.838;9.324;2023-03-16T00:57:06;6.83;;;6.07;;
17451;SDS011;8843;48.838;9.324;2023-03-16T00:59:34;8.47;;;6.60;;
17451;SDS011;8843;48.838;9.324;2023-03-16T01:02:02;9.50;;;6.70;;
17451;SDS011;8843;48.838;9.324;2023-03-16T01:04:31;8.03;;;6.47;;
17451;SDS011;8843;48.838;9.324;2023-03-16T01:07:00;7.30;;;5.73;;
17451;SDS011;8843;48.838;9.324;2023-03-16T01:09:27;9.10;;;6.53;;
17451;SDS011;8843;48.838;9.324;2023-03-16T01:11:54;8.07;;;6.20;;
17451;SDS011;8843;48.838;9.324;2023-03-16T01:14:21;8.67;;;6.80;;
17451;SDS011;8843;48.838;9.324;2023-03-16T01:16:48;7.73;;;6.93;;
17451;SDS011;8843;48.838;9.324;2023-03-16T01:19:16;10.40;;;7.37;;
17451;SDS011;8843;48.838;9.324;2023-03-16T01:21:44;8.63;;;6.80;;
17451;SDS011;8843;48.838;9.324;2023-03-16T01:24:11;11.17;;;7.57;;
17451;SDS011;8843;48.838;9.324;2023-03-16T01:26:38;7.67;;;6.50;;
17451;SDS011;8843;48.838;9.324;2023-03-16T01:29:05;9.93;;;7.33;;
17451;SDS011;8843;48.838;9.324;2023-03-16T01:31:32;9.03;;;6.93;;
17451;SDS011;8843;48.838;9.324;2023-03-16T01:33:58;9.03;;;7.27;;
17451;SDS011;8843;48.838;9.324;2023-03-16T01:36:28;10.93;;;8.10;;
17451;SDS011;8843;48.838;9.324;2023-03-16T01:38:57;10.43;;;7.00;;
17451;SDS011;8843;48.838;9.324;2023-03-16T01:41:24;8.17;;;6.30;;
17451;SDS011;8843;48.838;9.324;2023-03-16T01:43:52;10.57;;;7.40;;
17451;SDS011;8843;48.838;9.324;2023-03-16T01:46:23;10.37;;;7.97;;
17451;SDS011;8843;48.838;9.324;2023-03-16T01:48:55;9.73;;;7.57;;
17451;SDS011;8843;48.838;9.324;2023-03-16T01:51:27;8.73;;;6.23;;
17451;SDS011;8843;48.838;9.324;2023-03-16T01:54:00;11.20;;;7.60;;
17451;SDS011;8843;48.838;9.324;2023-03-16T01:56:32;8.57;;;6.77;;
17451;SDS011;8843;48.838;9.324;2023-03-16T01:59:04;8.73;;;7.50;;
17451;SDS011;8843;48.838;9.324;2023-03-16T02:01:35;9.70;;;7.23;;
17451;SDS011;8843;48.838;9.324;2023-03-16T02:04:04;8.03;;;6.17;;
17451;SDS011;8843;48.838;9.324;2023-03-16T02:06:39;8.73;;;6.33;;
17451;SDS011;8843;48.838;9.324;2023-03-16T02:09:08;8.47;;;6.67;;
17451;SDS011;8843;48.838;9.324;2023-03-16T02:11:36;7.03;;;6.33;;
17451;SDS011;8843;48.838;9.324;2023-03-16T02:14:05;7.07;;;6.37;;
17451;SDS011;8843;48.838;9.324;2023-03-16T02:16:34;8.80;;;7.07;;
17451;SDS011;8843;48.838;9.324;2023-03-16T02:19:02;8.37;;;6.50;;
17451;SDS011;8843;48.838;9.324;2023-03-16T02:21:32;8.03;;;6.57;;
17451;SDS011;8843;48.838;9.324;2023-03-16T02:24:06;8.73;;;6.63;;
17451;SDS011;8843;48.838;9.324;2023-03-16T02:26:36;8.43;;;6.73;;
17451;SDS011;8843;48.838;9.324;2023-03-16T02:29:20;6.97;;;5.43;;
17451;SDS011;8843;48.838;9.324;2023-03-16T02:31:57;7.93;;;6.63;;
17451;SDS011;8843;48.838;9.324;2023-03-16T02:34:26;10.73;;;7.47;;
17451;SDS011;8843;48.838;9.324;2023-03-16T02:36:54;7.63;;;5.83;;
17451;SDS011;8843;48.838;9.324;2023-03-16T02:39:23;7.90;;;6.73;;
17451;SDS011;8843;48.838;9.324;2023-03-16T02:41:50;9.87;;;6.97;;
17451;SDS011;8843;48.838;9.324;2023-03-16T02:44:19;8.53;;;6.30;;
17451;SDS011;8843;48.838;9.324;2023-03-16T02:46:50;7.20;;;6.47;;
17451;SDS011;8843;48.838;9.324;2023-03-16T02:49:20;8.60;;;6.70;;
17451;SDS011;8843;48.838;9.324;2023-03-16T02:51:50;9.97;;;6.80;;
17451;SDS011;8843;48.838;9.324;2023-03-16T02:54:18;7.23;;;6.30;;
17451;SDS011;8843;48.838;9.324;2023-03-16T02:56:45;8.07;;;6.10;;
17451;SDS011;8843;48.838;9.324;2023-03-16T02:59:12;7.57;;;6.27;;
17451;SDS011;8843;48.838;9.324;2023-03-16T03:01:39;8.40;;;6.67;;
17451;SDS011;8843;48.838;9.324;2023-03-16T03:04:06;7.57;;;6.67;;
17451;SDS011;8843;48.838;9.324;2023-03-16T03:06:35;7.67;;;6.87;;
17451;SDS011;8843;48.838;9.324;2023-03-16T03:09:02;7.97;;;6.13;;
17451;SDS011;8843;48.838;9.324;2023-03-16T03:11:29;9.53;;;6.63;;
17451;SDS011;8843;48.838;9.324;2023-03-16T03:13:57;7.13;;;6.23;;
17451;SDS011;8843;48.838;9.324;2023-03-16T03:16:24;9.07;;;6.87;;
17451;SDS011;8843;48.838;9.324;2023-03-16T03:18:51;7.77;;;6.60;;
17451;SDS011;8843;48.838;9.324;2023-03-16T03:21:18;7.50;;;6.47;;
17451;SDS011;8843;48.838;9.324;2023-03-16T03:23:46;6.53;;;5.63;;
17451;SDS011;8843;48.838;9.324;2023-03-16T03:26:13;7.70;;;6.57;;
17451;SDS011;8843;48.838;9.324;2023-03-16T03:28:41;6.90;;;5.83;;
17451;SDS011;8843;48.838;9.324;2023-03-16T03:31:11;8.53;;;6.20;;
17451;SDS011;8843;48.838;9.324;2023-03-16T03:33:39;7.83;;;6.53;;
17451;SDS011;8843;48.838;9.324;2023-03-16T03:36:07;7.57;;;6.53;;
17451;SDS011;8843;48.838;9.324;2023-03-16T03:38:34;6.57;;;5.90;;
17451;SDS011;8843;48.838;9.324;2023-03-16T03:41:02;6.33;;;5.57;;
17451;SDS011;8843;48.838;9.324;2023-03-16T03:43:31;7.47;;;6.00;;
17451;SDS011;8843;48.838;9.324;2023-03-16T03:45:58;7.23;;;6.33;;
17451;SDS011;8843;48.838;9.324;2023-03-16T03:48:27;8.07;;;6.53;;
17451;SDS011;8843;48.838;9.324;2023-03-16T03:50:54;7.30;;;6.17;;
17451;SDS011;8843;48.838;9.324;2023-03-16T03:53:21;8.03;;;6.47;;
17451;SDS011;8843;48.838;9.324;2023-03-16T03:55:48;5.97;;;5.37;;
17451;SDS011;8843;48.838;9.324;2023-03-16T03:58:16;7.10;;;5.93;;
17451;SDS011;8843;48.838;9.324;2023-03-16T04:00:43;8.13;;;6.47;;
17451;SDS011;8843;48.838;9.324;2023-03-16T04:03:10;9.60;;;6.37;;
17451;SDS011;8843;48.838;9.324;2023-03-16T04:05:36;7.83;;;5.70;;
17451;SDS011;8843;48.838;9.324;2023-03-16T04:08:03;8.70;;;6.13;;
17451;SDS011;8843;48.838;9.324;2023-03-16T04:10:31;7.93;;;6.00;;
17451;SDS011;8843;48.838;9.324;2023-03-16T04:12:58;9.23;;;6.70;;
17451;SDS011;8843;48.838;9.324;2023-03-16T04:15:26;9.37;;;6.83;;
17451;SDS011;8843;48.838;9.324;2023-03-16T04:17:53;8.23;;;6.23;;
17451;SDS011;8843;48.838;9.324;2023-03-16T04:20:20;7.33;;;6.60;;
17451;SDS011;8843;48.838;9.324;2023-03-16T04:22:47;11.10;;;7.30;;
17451;SDS011;8843;48.838;9.324;2023-03-16T04:25:22;9.17;;;6.63;;
17451;SDS011;8843;48.838;9.324;2023-03-16T04:27:50;10.40;;;6.60;;
17451;SDS011;8843;48.838;9.324;2023-03-16T04:30:17;8.83;;;6.70;;
17451;SDS011;8843;48.838;9.324;2023-03-16T04:32:46;8.67;;;6.83;;
17451;SDS011;8843;48.838;9.324;2023-03-16T04:35:12;9.10;;;7.23;;
17451;SDS011;8843;48.838;9.324;2023-03-16T04:37:40;7.20;;;6.13;;
17451;SDS011;8843;48.838;9.324;2023-03-16T04:40:08;9.40;;;6.47;;
17451;SDS011;8843;48.838;9.324;2023-03-16T04:42:40;9.20;;;6.17;;
17451;SDS011;8843;48.838;9.324;2023-03-16T04:45:08;8.70;;;6.30;;
17451;SDS011;8843;48.838;9.324;2023-03-16T04:47:35;8.97;;;6.43;;
17451;SDS011;8843;48.838;9.324;2023-03-16T04:50:04;9.77;;;6.47;;
17451;SDS011;8843;48.838;9.324;2023-03-16T04:52:31;9.57;;;6.60;;
17451;SDS011;8843;48.838;9.324;2023-03-16T04:54:58;8.70;;;6.90;;
17451;SDS011;8843;48.838;9.324;2023-03-16T04:57:25;8.70;;;6.63;;
17451;SDS011;8843;48.838;9.324;2023-03-16T04:59:52;8.80;;;5.77;;
17451;SDS011;8843;48.838;9.324;2023-03-16T05:02:19;7.83;;;6.17;;
17451;SDS011;8843;48.838;9.324;2023-03-16T05:04:46;8.70;;;6.50;;
17451;SDS011;8843;48.838;9.324;2023-03-16T05:07:15;8.30;;;6.63;;
17451;SDS011;8843;48.838;9.324;2023-03-16T05:09:42;10.03;;;7.03;;
17451;SDS011;8843;48.838;9.324;2023-03-16T05:12:09;9.23;;;6.67;;
17451;SDS011;8843;48.838;9.324;2023-03-16T05:14:36;9.77;;;7.57;;
17451;SDS011;8843;48.838;9.324;2023-03-16T05:17:03;9.17;;;7.07;;
17451;SDS011;8843;48.838;9.324;2023-03-16T05:19:30;8.50;;;7.43;;
17451;SDS011;8843;48.838;9.324;2023-03-16T05:21:57;8.93;;;6.87;;
17451;SDS011;8843;48.838;9.324;2023-03-16T05:24:26;8.33;;;6.17;;
17451;SDS011;8843;48.838;9.324;2023-03-16T05:26:52;13.63;;;7.10;;
17451;SDS011;8843;48.838;9.324;2023-03-16T05:29:19;8.20;;;6.73;;
17451;SDS011;8843;48.838;9.324;2023-03-16T05:31:46;8.00;;;6.30;;
17451;SDS011;8843;48.838;9.324;2023-03-16T05:34:13;9.27;;;6.60;;
17451;SDS011;8843;48.838;9.324;2023-03-16T05:36:40;10.17;;;6.20;;
17451;SDS011;8843;48.838;9.324;2023-03-16T05:39:09;7.57;;;6.30;;
17451;SDS011;8843;48.838;9.324;2023-03-16T05:41:37;9.60;;;6.73;;
17451;SDS011;8843;48.838;9.324;2023-03-16T05:44:04;9.23;;;6.33;;
17451;SDS011;8843;48.838;9.324;2023-03-16T05:46:31;7.30;;;6.10;;
17451;SDS011;8843;48.838;9.324;2023-03-16T05:48:58;8.77;;;6.73;;
17451;SDS011;8843;48.838;9.324;2023-03-16T05:51:25;9.50;;;6.60;;
17451;SDS011;8843;48.838;9.324;2023-03-16T05:53:52;8.07;;;6.13;;
17451;SDS011;8843;48.838;9.324;2023-03-16T05:56:22;8.80;;;6.03;;
17451;SDS011;8843;48.838;9.324;2023-03-16T05:58:50;7.33;;;5.33;;
17451;SDS011;8843;48.838;9.324;2023-03-16T06:01:18;9.23;;;7.33;;
17451;SDS011;8843;48.838;9.324;2023-03-16T06:03:45;8.87;;;6.90;;
17451;SDS011;8843;48.838;9.324;2023-03-16T06:06:13;8.00;;;6.43;;
17451;SDS011;8843;48.838;9.324;2023-03-16T06:08:40;8.67;;;6.27;;
17451;SDS011;8843;48.838;9.324;2023-03-16T06:11:07;9.70;;;6.80;;
17451;SDS011;8843;48.838;9.324;2023-03-16T06:13:34;9.33;;;7.27;;
17451;SDS011;8843;48.838;9.324;2023-03-16T06:16:03;9.17;;;6.77;;
17451;SDS011;8843;48.838;9.324;2023-03-16T06:18:31;9.10;;;6.53;;
17451;SDS011;8843;48.838;9.324;2023-03-16T06:20:58;7.00;;;6.30;;
17451;SDS011;8843;48.838;9.324;2023-03-16T06:23:25;8.37;;;6.63;;
17451;SDS011;8843;48.838;9.324;2023-03-16T06:25:52;9.13;;;6.80;;
17451;SDS011;8843;48.838;9.324;2023-03-16T06:28:20;9.47;;;6.77;;
17451;SDS011;8843;48.838;9.324;2023-03-16T06:30:47;9.03;;;6.47;;
17451;SDS011;8843;48.838;9.324;2023-03-16T06:33:16;8.67;;;6.33;;
17451;SDS011;8843;48.838;9.324;2023-03-16T06:35:43;7.73;;;6.27;;
17451;SDS011;8843;48.838;9.324;2023-03-16T06:38:12;8.53;;;6.13;;
17451;SDS011;8843;48.838;9.324;2023-03-16T06:40:39;7.63;;;6.50;;
17451;SDS011;8843;48.838;9.324;2023-03-16T06:43:06;7.17;;;5.60;;
17451;SDS011;8843;48.838;9.324;2023-03-16T06:45:33;8.57;;;6.23;;
17451;SDS011;8843;48.838;9.324;2023-03-16T06:48:00;9.90;;;6.30;;
17451;SDS011;8843;48.838;9.324;2023-03-16T06:50:28;7.50;;;5.90;;
17451;SDS011;8843;48.838;9.324;2023-03-16T06:52:55;9.57;;;6.47;;
17451;SDS011;8843;48.838;9.324;2023-03-16T06:55:22;8.53;;;6.53;;
17451;SDS011;8843;48.838;9.324;2023-03-16T06:57:49;8.87;;;6.80;;
17451;SDS011;8843;48.838;9.324;2023-03-16T07:00:16;10.73;;;6.70;;
17451;SDS011;8843;48.838;9.324;2023-03-16T07:02:44;9.40;;;7.63;;
17451;SDS011;8843;48.838;9.324;2023-03-16T07:05:13;9.17;;;7.80;;
17451;SDS011;8843;48.838;9.324;2023-03-16T07:07:42;9.47;;;8.03;;
17451;SDS011;8843;48.838;9.324;2023-03-16T07:10:10;9.83;;;7.87;;
17451;SDS011;8843;48.838;9.324;2023-03-16T07:12:38;10.23;;;8.40;;
17451;SDS011;8843;48.838;9.324;2023-03-16T07:15:06;10.40;;;8.73;;
17451;SDS011;8843;48.838;9.324;2023-03-16T07:17:34;9.93;;;8.23;;
17451;SDS011;8843;48.838;9.324;2023-03-16T07:20:02;10.23;;;8.60;;
17451;SDS011;8843;48.838;9.324;2023-03-16T07:22:29;8.80;;;7.90;;
17451;SDS011;8843;48.838;9.324;2023-03-16T07:24:57;10.97;;;9.27;;
17451;SDS011;8843;48.838;9.324;2023-03-16T07:27:25;11.30;;;8.10;;
17451;SDS011;8843;48.838;9.324;2023-03-16T07:29:53;9.40;;;6.63;;
17451;SDS011;8843;48.838;9.324;2023-03-16T07:32:20;10.10;;;7.20;;
17451;SDS011;8843;48.838;9.324;2023-03-16T07:34:48;8.90;;;7.60;;
17451;SDS011;8843;48.838;9.324;2023-03-16T07:37:14;9.50;;;7.27;;
17451;SDS011;8843;48.838;9.324;2023-03-16T07:39:41;9.83;;;7.47;;
17451;SDS011;8843;48.838;9.324;2023-03-16T07:42:10;9.63;;;7.70;;
17451;SDS011;8843;48.838;9.324;2023-03-16T07:44:38;7.73;;;6.83;;
17451;SDS011;8843;48.838;9.324;2023-03-16T07:47:05;9.90;;;7.20;;
17451;SDS011;8843;48.838;9.324;2023-03-16T07:49:33;10.40;;;7.40;;
17451;SDS011;8843;48.838;9.324;2023-03-16T07:52:00;10.63;;;7.83;;
17451;SDS011;8843;48.838;9.324;2023-03-16T07:54:27;11.80;;;8.50;;
17451;SDS011;8843;48.838;9.324;2023-03-16T07:56:54;11.17;;;7.87;;
17451;SDS011;8843;48.838;9.324;2023-03-16T07:59:22;10.50;;;6.97;;
17451;SDS011;8843;48.838;9.324;2023-03-16T08:01:49;10.30;;;7.13;;
17451;SDS011;8843;48.838;9.324;2023-03-16T08:04:16;9.37;;;7.23;;
17451;SDS011;8843;48.838;9.324;2023-03-16T08:06:43;10.63;;;7.40;;
17451;SDS011;8843;48.838;9.324;2023-03-16T08:09:10;9.27;;;7.07;;
17451;SDS011;8843;48.838;9.324;2023-03-16T08:11:36;11.83;;;7.47;;
17451;SDS011;8843;48.838;9.324;2023-03-16T08:14:04;10.37;;;6.93;;
17451;SDS011;8843;48.838;9.324;2023-03-16T08:16:32;10.80;;;7.00;;
17451;SDS011;8843;48.838;9.324;2023-03-16T08:19:00;10.17;;;7.63;;
17451;SDS011;8843;48.838;9.324;2023-03-16T08:21:27;11.60;;;7.40;;
17451;SDS011;8843;48.838;9.324;2023-03-16T08:23:54;12.33;;;7.47;;
17451;SDS011;8843;48.838;9.324;2023-03-16T08:26:22;9.87;;;7.27;;
17451;SDS011;8843;48.838;9.324;2023-03-16T08:28:50;10.20;;;6.77;;
17451;SDS011;8843;48.838;9.324;2023-03-16T08:31:18;10.93;;;8.30;;
17451;SDS011;8843;48.838;9.324;2023-03-16T08:33:48;9.87;;;7.70;;
17451;SDS011;8843;48.838;9.324;2023-03-16T08:36:16;11.10;;;8.20;;
17451;SDS011;8843;48.838;9.324;2023-03-16T08:38:45;8.90;;;6.37;;
17451;SDS011;8843;48.838;9.324;2023-03-16T08:41:12;9.73;;;6.23;;
17451;SDS011;8843;48.838;9.324;2023-03-16T08:43:40;8.77;;;7.23;;
17451;SDS011;8843;48.838;9.324;2023-03-16T08:46:08;9.90;;;7.20;;
17451;SDS011;8843;48.838;9.324;2023-03-16T08:48:35;10.27;;;6.73;;
17451;SDS011;8843;48.838;9.324;2023-03-16T08:51:04;9.63;;;7.17;;
17451;SDS011;8843;48.838;9.324;2023-03-16T08:53:31;10.13;;;7.40;;
17451;SDS011;8843;48.838;9.324;2023-03-16T08:56:01;10.67;;;7.97;;
17451;SDS011;8843;48.838;9.324;2023-03-16T08:58:30;9.40;;;6.73;;
17451;SDS011;8843;48.838;9.324;2023-03-16T09:00:58;9.33;;;6.93;;
17451;SDS011;8843;48.838;9.324;2023-03-16T09:03:25;11.03;;;7.70;;
17451;SDS011;8843;48.838;9.324;2023-03-16T09:05:52;10.63;;;7.10;;
17451;SDS011;8843;48.838;9.324;2023-03-16T09:08:20;11.03;;;7.50;;
17451;SDS011;8843;48.838;9.324;2023-03-16T09:10:47;8.47;;;6.90;;
17451;SDS011;8843;48.838;9.324;2023-03-16T09:13:15;9.83;;;7.63;;
17451;SDS011;8843;48.838;9.324;2023-03-16T09:15:43;12.57;;;7.93;;
17451;SDS011;8843;48.838;9.324;2023-03-16T09:18:10;8.37;;;6.93;;
17451;SDS011;8843;48.838;9.324;2023-03-16T09:20:37;8.57;;;6.83;;
17451;SDS011;8843;48.838;9.324;2023-03-16T09:23:04;9.47;;;6.57;;
17451;SDS011;8843;48.838;9.324;2023-03-16T09:25:32;9.67;;;6.50;;
17451;SDS011;8843;48.838;9.324;2023-03-16T09:27:59;10.93;;;6.53;;
17451;SDS011;8843;48.838;9.324;2023-03-16T09:30:26;10.40;;;7.03;;
17451;SDS011;8843;48.838;9.324;2023-03-16T09:32:53;10.13;;;7.10;;
17451;SDS011;8843;48.838;9.324;2023-03-16T09:35:20;9.87;;;6.70;;
17451;SDS011;8843;48.838;9.324;2023-03-16T09:37:47;9.03;;;6.70;;
17451;SDS011;8843;48.838;9.324;2023-03-16T09:40:20;6.67;;;4.87;;
17451;SDS011;8843;48.838;9.324;2023-03-16T09:42:52;7.17;;;6.03;;
17451;SDS011;8843;48.838;9.324;2023-03-16T09:45:29;7.37;;;5.37;;
17451;SDS011;8843;48.838;9.324;2023-03-16T09:48:00;7.30;;;5.47;;
17451;SDS011;8843;48.838;9.324;2023-03-16T09:50:30;10.10;;;6.03;;
17451;SDS011;8843;48.838;9.324;2023-03-16T09:53:04;11.57;;;6.57;;
17451;SDS011;8843;48.838;9.324;2023-03-16T09:55:36;9.87;;;6.47;;
17451;SDS011;8843;48.838;9.324;2023-03-16T09:58:09;9.30;;;6.67;;
17451;SDS011;8843;48.838;9.324;2023-03-16T10:00:43;9.30;;;5.90;;
17451;SDS011;8843;48.838;9.324;2023-03-16T10:03:21;10.50;;;6.13;;
17451;SDS011;8843;48.838;9.324;2023-03-16T10:06:08;9.20;;;5.17;;
17451;SDS011;8843;48.838;9.324;2023-03-16T10:08:38;7.87;;;5.70;;
17451;SDS011;8843;48.838;9.324;2023-03-16T10:11:17;7.50;;;5.40;;
17451;SDS011;8843;48.838;9.324;2023-03-16T10:13:53;7.43;;;5.27;;
17451;SDS011;8843;48.838;9.324;2023-03-16T10:16:23;6.83;;;4.83;;
17451;SDS011;8843;48.838;9.324;2023-03-16T10:18:56;6.33;;;4.63;;
17451;SDS011;8843;48.838;9.324;2023-03-16T10:21:28;7.67;;;4.30;;
17451;SDS011;8843;48.838;9.324;2023-03-16T10:23:58;4.93;;;4.53;;
17451;SDS011;8843;48.838;9.324;2023-03-16T10:26:30;4.97;;;4.10;;
17451;SDS011;8843;48.838;9.324;2023-03-16T10:29:04;5.17;;;3.93;;
17451;SDS011;8843;48.838;9.324;2023-03-16T10:31:37;5.30;;;4.67;;
17451;SDS011;8843;48.838;9.324;2023-03-16T10:34:05;5.23;;;4.03;;
17451;SDS011;8843;48.838;9.324;2023-03-16T10:36:33;5.03;;;3.93;;
17451;SDS011;8843;48.838;9.324;2023-03-16T10:39:02;5.97;;;3.60;;
17451;SDS011;8843;48.838;9.324;2023-03-16T10:41:30;6.13;;;4.60;;
17451;SDS011;8843;48.838;9.324;2023-03-16T10:43:59;5.77;;;4.40;;
17451;SDS011;8843;48.838;9.324;2023-03-16T10:46:36;6.37;;;4.00;;
17451;SDS011;8843;48.838;9.324;2023-03-16T10:49:04;5.33;;;3.87;;
17451;SDS011;8843;48.838;9.324;2023-03-16T10:51:44;6.53;;;3.73;;
17451;SDS011;8843;48.838;9.324;2023-03-16T10:54:13;7.13;;;4.33;;
17451;SDS011;8843;48.838;9.324;2023-03-16T10:56:46;5.93;;;3.50;;
17451;SDS011;8843;48.838;9.324;2023-03-16T10:59:15;5.03;;;3.37;;
17451;SDS011;8843;48.838;9.324;2023-03-16T11:01:54;5.17;;;3.63;;
17451;SDS011;8843;48.838;9.324;2023-03-16T11:04:22;6.13;;;4.10;;
17451;SDS011;8843;48.838;9.324;2023-03-16T11:06:51;4.10;;;3.47;;
17451;SDS011;8843;48.838;9.324;2023-03-16T11:09:20;7.53;;;3.67;;
17451;SDS011;8843;48.838;9.324;2023-03-16T11:11:49;4.20;;;2.90;;
17451;SDS011;8843;48.838;9.324;2023-03-16T11:14:18;4.13;;;3.50;;
17451;SDS011;8843;48.838;9.324;2023-03-16T11:16:48;7.00;;;3.93;;
17451;SDS011;8843;48.838;9.324;2023-03-16T11:19:20;4.30;;;3.53;;
17451;SDS011;8843;48.838;9.324;2023-03-16T11:21:52;5.67;;;4.40;;
17451;SDS011;8843;48.838;9.324;2023-03-16T11:24:25;4.07;;;3.30;;
17451;SDS011;8843;48.838;9.324;2023-03-16T11:26:56;4.87;;;3.47;;
17451;SDS011;8843;48.838;9.324;2023-03-16T11:29:26;5.10;;;2.87;;
17451;SDS011;8843;48.838;9.324;2023-03-16T11:32:04;4.00;;;3.10;;
17451;SDS011;8843;48.838;9.324;2023-03-16T11:34:37;3.50;;;3.20;;
17451;SDS011;8843;48.838;9.324;2023-03-16T11:37:04;3.53;;;3.07;;
17451;SDS011;8843;48.838;9.324;2023-03-16T11:39:43;5.03;;;3.30;;
17451;SDS011;8843;48.838;9.324;2023-03-16T11:42:26;3.97;;;3.37;;
17451;SDS011;8843;48.838;9.324;2023-03-16T11:44:57;3.67;;;3.27;;
17451;SDS011;8843;48.838;9.324;2023-03-16T11:47:44;7.00;;;3.03;;
17451;SDS011;8843;48.838;9.324;2023-03-16T11:50:27;3.73;;;2.83;;
17451;SDS011;8843;48.838;9.324;2023-03-16T11:53:04;2.70;;;2.50;;
17451;SDS011;8843;48.838;9.324;2023-03-16T11:55:38;2.63;;;2.43;;
17451;SDS011;8843;48.838;9.324;2023-03-16T11:58:15;3.17;;;2.87;;
17451;SDS011;8843;48.838;9.324;2023-03-16T12:00:54;5.60;;;2.80;;
17451;SDS011;8843;48.838;9.324;2023-03-16T12:03:49;4.93;;;2.60;;
17451;SDS011;8843;48.838;9.324;2023-03-16T12:09:43;3.53;;;2.43;;
17451;SDS011;8843;48.838;9.324;2023-03-16T12:12:21;3.87;;;2.60;;
17451;SDS011;8843;48.838;9.324;2023-03-16T12:15:02;3.00;;;2.20;;
17451;SDS011;8843;48.838;9.324;2023-03-16T12:17:40;3.00;;;2.37;;
17451;SDS011;8843;48.838;9.324;2023-03-16T12:20:12;2.70;;;2.27;;
17451;SDS011;8843;48.838;9.324;2023-03-16T12:22:46;3.30;;;2.50;;
17451;SDS011;8843;48.838;9.324;2023-03-16T12:25:17;3.27;;;2.60;;
17451;SDS011;8843;48.838;9.324;2023-03-16T12:27:48;2.53;;;2.30;;
17451;SDS011;8843;48.838;9.324;2023-03-16T12:30:23;3.13;;;2.47;;
17451;SDS011;8843;48.838;9.324;2023-03-16T12:33:00;4.00;;;2.30;;
17451;SDS011;8843;48.838;9.324;2023-03-16T12:35:39;3.00;;;2.67;;
17451;SDS011;8843;48.838;9.324;2023-03-16T12:38:17;3.67;;;2.20;;
17451;SDS011;8843;48.838;9.324;2023-03-16T12:40:59;3.13;;;2.20;;
17451;SDS011;8843;48.838;9.324;2023-03-16T12:43:40;3.87;;;2.67;;
17451;SDS011;8843;48.838;9.324;2023-03-16T12:46:14;3.17;;;2.60;;
17451;SDS011;8843;48.838;9.324;2023-03-16T12:48:51;2.53;;;2.30;;
17451;SDS011;8843;48.838;9.324;2023-03-16T12:51:30;2.97;;;2.10;;
17451;SDS011;8843;48.838;9.324;2023-03-16T12:53:59;3.77;;;2.40;;
17451;SDS011;8843;48.838;9.324;2023-03-16T12:56:29;3.07;;;2.37;;
17451;SDS011;8843;48.838;9.324;2023-03-16T12:58:58;3.57;;;2.23;;
17451;SDS011;8843;48.838;9.324;2023-03-16T13:01:27;3.20;;;2.10;;
17451;SDS011;8843;48.838;9.324;2023-03-16T13:04:00;5.23;;;2.47;;
17451;SDS011;8843;48.838;9.324;2023-03-16T13:06:32;3.87;;;2.63;;
17451;SDS011;8843;48.838;9.324;2023-03-16T13:09:02;2.93;;;2.50;;
17451;SDS011;8843;48.838;9.324;2023-03-16T13:11:41;2.87;;;2.10;;
17451;SDS011;8843;48.838;9.324;2023-03-16T13:14:14;3.10;;;1.90;;
17451;SDS011;8843;48.838;9.324;2023-03-16T13:17:01;3.47;;;2.37;;
17451;SDS011;8843;48.838;9.324;2023-03-16T13:19:30;2.70;;;2.33;;
17451;SDS011;8843;48.838;9.324;2023-03-16T13:22:04;2.40;;;2.20;;
17451;SDS011;8843;48.838;9.324;2023-03-16T13:24:50;2.83;;;2.47;;
17451;SDS011;8843;48.838;9.324;2023-03-16T13:27:19;4.00;;;2.27;;
17451;SDS011;8843;48.838;9.324;2023-03-16T13:29:52;2.50;;;1.97;;
17451;SDS011;8843;48.838;9.324;2023-03-16T13:32:21;1.93;;;1.83;;
17451;SDS011;8843;48.838;9.324;2023-03-16T13:34:52;2.83;;;2.40;;
17451;SDS011;8843;48.838;9.324;2023-03-16T13:37:23;3.13;;;2.20;;
17451;SDS011;8843;48.838;9.324;2023-03-16T13:39:54;2.97;;;2.57;;
17451;SDS011;8843;48.838;9.324;2023-03-16T13:42:23;2.80;;;2.20;;
17451;SDS011;8843;48.838;9.324;2023-03-16T13:44:51;2.20;;;2.00;;
17451;SDS011;8843;48.838;9.324;2023-03-16T13:47:19;4.33;;;2.53;;
17451;SDS011;8843;48.838;9.324;2023-03-16T13:49:47;2.43;;;2.13;;
17451;SDS011;8843;48.838;9.324;2023-03-16T13:52:18;2.87;;;2.43;;
17451;SDS011;8843;48.838;9.324;2023-03-16T13:54:54;3.73;;;2.37;;
17451;SDS011;8843;48.838;9.324;2023-03-16T13:57:23;3.73;;;2.10;;
17451;SDS011;8843;48.838;9.324;2023-03-16T13:59:59;4.30;;;2.07;;
17451;SDS011;8843;48.838;9.324;2023-03-16T14:02:29;3.70;;;2.20;;
17451;SDS011;8843;48.838;9.324;2023-03-16T14:05:08;2.33;;;2.10;;
17451;SDS011;8843;48.838;9.324;2023-03-16T14:07:36;3.27;;;2.33;;
17451;SDS011;8843;48.838;9.324;2023-03-16T14:10:07;2.67;;;1.93;;
17451;SDS011;8843;48.838;9.324;2023-03-16T14:12:36;3.63;;;2.40;;
17451;SDS011;8843;48.838;9.324;2023-03-16T14:15:05;3.50;;;2.20;;
17451;SDS011;8843;48.838;9.324;2023-03-16T14:17:34;3.10;;;2.70;;
17451;SDS011;8843;48.838;9.324;2023-03-16T14:20:01;2.70;;;2.50;;
17451;SDS011;8843;48.838;9.324;2023-03-16T14:22:30;4.00;;;2.30;;
17451;SDS011;8843;48.838;9.324;2023-03-16T14:25:00;3.90;;;2.63;;
17451;SDS011;8843;48.838;9.324;2023-03-16T14:27:31;3.03;;;2.27;;
17451;SDS011;8843;48.838;9.324;2023-03-16T14:30:13;2.67;;;2.43;;
17451;SDS011;8843;48.838;9.324;2023-03-16T14:32:52;5.63;;;2.80;;
17451;SDS011;8843;48.838;9.324;2023-03-16T14:35:20;4.33;;;2.67;;
17451;SDS011;8843;48.838;9.324;2023-03-16T14:37:50;4.43;;;2.40;;
17451;SDS011;8843;48.838;9.324;2023-03-16T14:40:23;4.67;;;2.90;;
17451;SDS011;8843;48.838;9.324;2023-03-16T14:42:54;3.90;;;3.07;;
17451;SDS011;8843;48.838;9.324;2023-03-16T14:45:26;6.20;;;3.40;;
17451;SDS011;8843;48.838;9.324;2023-03-16T14:47:59;4.50;;;2.87;;
17451;SDS011;8843;48.838;9.324;2023-03-16T14:50:29;4.03;;;2.83;;
17451;SDS011;8843;48.838;9.324;2023-03-16T14:52:58;3.13;;;2.70;;
17451;SDS011;8843;48.838;9.324;2023-03-16T14:55:26;4.60;;;2.83;;
17451;SDS011;8843;48.838;9.324;2023-03-16T14:57:54;4.03;;;2.93;;
17451;SDS011;8843;48.838;9.324;2023-03-16T15:00:21;4.20;;;3.33;;
17451;SDS011;8843;48.838;9.324;2023-03-16T15:02:53;5.33;;;3.63;;
17451;SDS011;8843;48.838;9.324;2023-03-16T15:05:26;5.10;;;3.40;;
17451;SDS011;8843;48.838;9.324;2023-03-16T15:07:59;3.97;;;3.00;;
17451;SDS011;8843;48.838;9.324;2023-03-16T15:10:28;5.23;;;2.90;;
17451;SDS011;8843;48.838;9.324;2023-03-16T15:12:59;3.57;;;3.10;;
17451;SDS011;8843;48.838;9.324;2023-03-16T15:15:37;6.43;;;3.83;;
17451;SDS011;8843;48.838;9.324;2023-03-16T15:18:04;4.60;;;3.23;;
17451;SDS011;8843;48.838;9.324;2023-03-16T15:20:33;5.93;;;3.60;;
17451;SDS011;8843;48.838;9.324;2023-03-16T15:23:04;5.07;;;3.10;;
17451;SDS011;8843;48.838;9.324;2023-03-16T15:25:32;3.93;;;2.93;;